sensor_id;sensor_type;location;lat;lon;timestamp;pressure;altitude;pressure_sealevel;temperature;humidity
74103;BME280;62853;46.166;3.640;2024-02-26T00:00:28;99651.81;;;8.04;100.00
74103;BME280;62853;46.166;3.640;2024-02-26T00:02:54;99651.72;;;8.06;100.00
74103;BME280;62853;46.166;3.640;2024-02-26T00:05:20;99652.88;;;8.01;100.00
74103;BME280;62853;46.166;3.640;2024-02-26T00:07:45;99655.69;;;7.98;100.00
74103;BME280;62853;46.166;3.640;2024-02-26T00:10:12;99647.91;;;7.97;100.00
74103;BME280;62853;46.166;3.640;2024-02-26T00:12:38;99655.78;;;7.97;100.00
74103;BME280;62853;46.166;3.640;2024-02-26T00:15:05;99648.66;;;7.99;100.00
74103;BME280;62853;46.166;3.640;2024-02-26T00:17:30;99652.13;;;7.99;100.00
74103;BME280;62853;46.166;3.640;2024-02-26T00:19:56;99648.47;;;8.02;100.00
74103;BME280;62853;46.166;3.640;2024-02-26T00:22:21;99653.72;;;8.02;100.00
74103;BME280;62853;46.166;3.640;2024-02-26T00:24:47;99645.09;;;8.00;100.00
74103;BME280;62853;46.166;3.640;2024-02-26T00:27:12;99648.56;;;8.00;100.00
74103;BME280;62853;46.166;3.640;2024-02-26T00:29:38;99644.19;;;8.01;100.00
74103;BME280;62853;46.166;3.640;2024-02-26T00:32:03;99650.16;;;8.03;100.00
74103;BME280;62853;46.166;3.640;2024-02-26T00:34:29;99644.81;;;8.05;100.00
74103;BME280;62853;46.166;3.640;2024-02-26T00:36:54;99642.09;;;8.06;100.00
74103;BME280;62853;46.166;3.640;2024-02-26T00:39:19;99642.09;;;8.06;100.00
74103;BME280;62853;46.166;3.640;2024-02-26T00:41:44;99635.91;;;8.07;100.00
74103;BME280;62853;46.166;3.640;2024-02-26T00:44:10;99635.91;;;8.07;100.00
74103;BME280;62853;46.166;3.640;2024-02-26T00:46:36;99635.16;;;8.05;100.00
74103;BME280;62853;46.166;3.640;2024-02-26T00:49:02;99629.19;;;8.03;100.00
74103;BME280;62853;46.166;3.640;2024-02-26T00:51:28;99625.59;;;8.04;100.00
74103;BME280;62853;46.166;3.640;2024-02-26T00:53:54;99625.69;;;8.02;100.00
74103;BME280;62853;46.166;3.640;2024-02-26T00:56:19;99625.69;;;8.02;100.00
74103;BME280;62853;46.166;3.640;2024-02-26T00:58:44;99634.44;;;8.03;100.00
74103;BME280;62853;46.166;3.640;2024-02-26T01:01:10;99626.94;;;7.97;100.00
74103;BME280;62853;46.166;3.640;2024-02-26T01:03:35;99626.28;;;7.93;100.00
74103;BME280;62853;46.166;3.640;2024-02-26T01:06:01;99631.63;;;7.92;100.00
74103;BME280;62853;46.166;3.640;2024-02-26T01:08:26;99632.38;;;7.94;100.00
74103;BME280;62853;46.166;3.640;2024-02-26T01:10:51;99637.53;;;7.95;100.00
74103;BME280;62853;46.166;3.640;2024-02-26T01:13:17;99642.69;;;7.97;100.00
74103;BME280;62853;46.166;3.640;2024-02-26T01:15:42;99648.75;;;7.97;100.00
74103;BME280;62853;46.166;3.640;2024-02-26T01:18:09;99644.56;;;7.95;100.00
74103;BME280;62853;46.166;3.640;2024-02-26T01:20:34;99639.22;;;7.96;100.00
74103;BME280;62853;46.166;3.640;2024-02-26T01:22:59;99646.44;;;7.93;100.00
74103;BME280;62853;46.166;3.640;2024-02-26T01:25:25;99647.38;;;7.92;100.00
74103;BME280;62853;46.166;3.640;2024-02-26T01:27:50;99650.91;;;7.91;100.00
74103;BME280;62853;46.166;3.640;2024-02-26T01:30:16;99651.78;;;7.91;100.00
74103;BME280;62853;46.166;3.640;2024-02-26T01:32:42;99650.00;;;7.92;100.00
74103;BME280;62853;46.166;3.640;2024-02-26T01:35:08;99662.06;;;7.94;100.00
74103;BME280;62853;46.166;3.640;2024-02-26T01:37:36;99657.56;;;7.96;100.00
74103;BME280;62853;46.166;3.640;2024-02-26T01:40:02;99661.03;;;7.97;100.00
74103;BME280;62853;46.166;3.640;2024-02-26T01:42:30;99672.34;;;7.97;100.00
74103;BME280;62853;46.166;3.640;2024-02-26T01:44:57;99667.19;;;7.96;100.00
74103;BME280;62853;46.166;3.640;2024-02-26T01:47:23;99667.19;;;7.96;100.00
74103;BME280;62853;46.166;3.640;2024-02-26T01:49:48;99662.91;;;7.95;100.00
74103;BME280;62853;46.166;3.640;2024-02-26T01:52:14;99668.25;;;7.93;100.00
74103;BME280;62853;46.166;3.640;2024-02-26T01:54:42;99658.69;;;7.92;100.00
74103;BME280;62853;46.166;3.640;2024-02-26T01:57:09;99662.91;;;7.95;100.00
74103;BME280;62853;46.166;3.640;2024-02-26T01:59:35;99668.06;;;7.96;100.00
74103;BME280;62853;46.166;3.640;2024-02-26T02:02:03;99667.97;;;7.98;100.00
74103;BME280;62853;46.166;3.640;2024-02-26T02:04:30;99674.97;;;7.97;100.00
74103;BME280;62853;46.166;3.640;2024-02-26T02:06:57;99668.16;;;7.95;100.00
74103;BME280;62853;46.166;3.640;2024-02-26T02:09:23;99669.00;;;7.95;100.00
74103;BME280;62853;46.166;3.640;2024-02-26T02:11:48;99656.63;;;7.97;100.00
74103;BME280;62853;46.166;3.640;2024-02-26T02:14:14;99666.19;;;7.98;100.00
74103;BME280;62853;46.166;3.640;2024-02-26T02:16:40;99654.66;;;8.01;100.00
74103;BME280;62853;46.166;3.640;2024-02-26T02:19:05;99659.91;;;8.01;100.00
74103;BME280;62853;46.166;3.640;2024-02-26T02:21:30;99656.34;;;8.02;100.00
74103;BME280;62853;46.166;3.640;2024-02-26T02:23:56;99654.53;;;8.02;100.00
74103;BME280;62853;46.166;3.640;2024-02-26T02:26:21;99653.63;;;8.04;100.00
74103;BME280;62853;46.166;3.640;2024-02-26T02:28:47;99651.81;;;8.04;100.00
74103;BME280;62853;46.166;3.640;2024-02-26T02:31:14;99651.91;;;8.02;100.00
74103;BME280;62853;46.166;3.640;2024-02-26T02:33:40;99657.16;;;8.02;100.00
74103;BME280;62853;46.166;3.640;2024-02-26T02:36:05;99654.44;;;8.04;100.00
74103;BME280;62853;46.166;3.640;2024-02-26T02:38:35;99658.22;;;8.00;100.00
74103;BME280;62853;46.166;3.640;2024-02-26T02:41:00;99654.00;;;7.97;100.00
74103;BME280;62853;46.166;3.640;2024-02-26T02:43:26;99661.75;;;7.99;100.00
74103;BME280;62853;46.166;3.640;2024-02-26T02:45:51;99651.09;;;8.02;100.00
74103;BME280;62853;46.166;3.640;2024-02-26T02:48:16;99651.00;;;8.04;100.00
74103;BME280;62853;46.166;3.640;2024-02-26T02:50:42;99658.78;;;8.05;100.00
74103;BME280;62853;46.166;3.640;2024-02-26T02:53:07;99656.97;;;8.06;100.00
74103;BME280;62853;46.166;3.640;2024-02-26T02:55:33;99656.06;;;8.07;100.00
74103;BME280;62853;46.166;3.640;2024-02-26T02:57:58;99653.63;;;8.04;100.00
74103;BME280;62853;46.166;3.640;2024-02-26T03:00:23;99658.22;;;8.00;100.00
74103;BME280;62853;46.166;3.640;2024-02-26T03:02:49;99656.34;;;8.02;100.00
74103;BME280;62853;46.166;3.640;2024-02-26T03:05:15;99658.78;;;8.05;100.00
74103;BME280;62853;46.166;3.640;2024-02-26T03:07:40;99648.19;;;8.07;100.00
74103;BME280;62853;46.166;3.640;2024-02-26T03:10:06;99659.50;;;8.07;100.00
74103;BME280;62853;46.166;3.640;2024-02-26T03:12:32;99655.00;;;8.09;100.00
74103;BME280;62853;46.166;3.640;2024-02-26T03:14:57;99660.16;;;8.11;100.00
74103;BME280;62853;46.166;3.640;2024-02-26T03:17:22;99658.28;;;8.13;100.00
74103;BME280;62853;46.166;3.640;2024-02-26T03:19:49;99664.28;;;8.15;100.00
74103;BME280;62853;46.166;3.640;2024-02-26T03:22:19;99659.97;;;8.14;100.00
74103;BME280;62853;46.166;3.640;2024-02-26T03:24:45;99659.13;;;8.13;100.00
74103;BME280;62853;46.166;3.640;2024-02-26T03:27:10;99663.53;;;8.13;100.00
74103;BME280;62853;46.166;3.640;2024-02-26T03:29:37;99669.63;;;8.13;100.00
74103;BME280;62853;46.166;3.640;2024-02-26T03:32:02;99667.09;;;8.12;100.00
74103;BME280;62853;46.166;3.640;2024-02-26T03:34:28;99664.66;;;8.09;100.00
74103;BME280;62853;46.166;3.640;2024-02-26T03:36:53;99664.75;;;8.07;100.00
74103;BME280;62853;46.166;3.640;2024-02-26T03:39:19;99663.09;;;8.06;100.00
74103;BME280;62853;46.166;3.640;2024-02-26T03:41:44;99672.63;;;8.07;100.00
74103;BME280;62853;46.166;3.640;2024-02-26T03:44:09;99674.31;;;8.08;100.00
74103;BME280;62853;46.166;3.640;2024-02-26T03:46:35;99667.28;;;8.09;100.00
74103;BME280;62853;46.166;3.640;2024-02-26T03:49:00;99665.50;;;8.09;100.00
74103;BME280;62853;46.166;3.640;2024-02-26T03:51:26;99672.63;;;8.07;100.00
74103;BME280;62853;46.166;3.640;2024-02-26T03:53:51;99676.19;;;8.06;100.00
74103;BME280;62853;46.166;3.640;2024-02-26T03:56:17;99671.88;;;8.05;100.00
74103;BME280;62853;46.166;3.640;2024-02-26T03:58:42;99670.19;;;8.04;100.00
74103;BME280;62853;46.166;3.640;2024-02-26T04:01:08;99670.19;;;8.04;100.00
74103;BME280;62853;46.166;3.640;2024-02-26T04:03:34;99666.72;;;8.04;100.00
74103;BME280;62853;46.166;3.640;2024-02-26T04:05:59;99670.00;;;8.07;100.00
74103;BME280;62853;46.166;3.640;2024-02-26T04:08:25;99673.56;;;8.06;100.00
74103;BME280;62853;46.166;3.640;2024-02-26T04:10:50;99678.59;;;8.09;100.00
74103;BME280;62853;46.166;3.640;2024-02-26T04:13:17;99676.94;;;8.08;100.00
74103;BME280;62853;46.166;3.640;2024-02-26T04:15:42;99675.34;;;8.06;100.00
74103;BME280;62853;46.166;3.640;2024-02-26T04:18:08;99683.19;;;8.06;100.00
74103;BME280;62853;46.166;3.640;2024-02-26T04:20:33;99680.66;;;8.04;100.00
74103;BME280;62853;46.166;3.640;2024-02-26T04:22:58;99686.97;;;8.01;100.00
74103;BME280;62853;46.166;3.640;2024-02-26T04:25:24;99679.09;;;8.01;100.00
74103;BME280;62853;46.166;3.640;2024-02-26T04:27:49;99680.13;;;7.99;100.00
74103;BME280;62853;46.166;3.640;2024-02-26T04:30:15;99681.91;;;7.98;100.00
74103;BME280;62853;46.166;3.640;2024-02-26T04:32:40;99691.38;;;8.01;100.00
74103;BME280;62853;46.166;3.640;2024-02-26T04:35:06;99692.13;;;8.03;100.00
74103;BME280;62853;46.166;3.640;2024-02-26T04:37:31;99694.66;;;8.05;100.00
74103;BME280;62853;46.166;3.640;2024-02-26T04:40:00;99693.78;;;8.04;100.00
74103;BME280;62853;46.166;3.640;2024-02-26T04:42:26;99698.09;;;8.05;100.00
74103;BME280;62853;46.166;3.640;2024-02-26T04:44:52;99707.66;;;8.06;100.00
74103;BME280;62853;46.166;3.640;2024-02-26T04:47:17;99698.00;;;8.07;100.00
74103;BME280;62853;46.166;3.640;2024-02-26T04:49:43;99705.03;;;8.06;100.00
74103;BME280;62853;46.166;3.640;2024-02-26T04:52:08;99705.97;;;8.05;100.00
74103;BME280;62853;46.166;3.640;2024-02-26T04:54:33;99711.22;;;8.05;100.00
74103;BME280;62853;46.166;3.640;2024-02-26T04:56:59;99698.28;;;8.02;100.00
74103;BME280;62853;46.166;3.640;2024-02-26T04:59:24;99698.28;;;8.02;100.00
74103;BME280;62853;46.166;3.640;2024-02-26T05:01:49;99703.53;;;8.02;100.00
74103;BME280;62853;46.166;3.640;2024-02-26T05:04:16;99703.44;;;8.04;100.00
74103;BME280;62853;46.166;3.640;2024-02-26T05:06:42;99697.28;;;8.05;100.00
74103;BME280;62853;46.166;3.640;2024-02-26T05:09:07;99702.50;;;8.05;100.00
74103;BME280;62853;46.166;3.640;2024-02-26T05:11:33;99706.81;;;8.06;100.00
74103;BME280;62853;46.166;3.640;2024-02-26T05:13:58;99706.91;;;8.04;100.00
74103;BME280;62853;46.166;3.640;2024-02-26T05:16:25;99713.09;;;8.03;100.00
74103;BME280;62853;46.166;3.640;2024-02-26T05:18:52;99715.72;;;8.03;100.00
74103;BME280;62853;46.166;3.640;2024-02-26T05:21:17;99711.59;;;7.99;100.00
74103;BME280;62853;46.166;3.640;2024-02-26T05:23:43;99717.97;;;7.95;100.00
74103;BME280;62853;46.166;3.640;2024-02-26T05:26:09;99712.06;;;7.91;100.00
74103;BME280;62853;46.166;3.640;2024-02-26T05:28:34;99713.84;;;7.91;100.00
74103;BME280;62853;46.166;3.640;2024-02-26T05:31:01;99710.47;;;7.89;100.00
74103;BME280;62853;46.166;3.640;2024-02-26T05:33:26;99722.66;;;7.90;100.00
74103;BME280;62853;46.166;3.640;2024-02-26T05:35:51;99739.13;;;7.92;100.00
74103;BME280;62853;46.166;3.640;2024-02-26T05:38:17;99733.16;;;7.90;100.00
74103;BME280;62853;46.166;3.640;2024-02-26T05:40:42;99735.75;;;7.90;100.00
74103;BME280;62853;46.166;3.640;2024-02-26T05:43:08;99733.22;;;7.88;100.00
74103;BME280;62853;46.166;3.640;2024-02-26T05:45:33;99750.66;;;7.89;100.00
74103;BME280;62853;46.166;3.640;2024-02-26T05:47:58;99747.19;;;7.89;100.00
74103;BME280;62853;46.166;3.640;2024-02-26T05:50:24;99752.41;;;7.89;100.00
74103;BME280;62853;46.166;3.640;2024-02-26T05:52:49;99751.69;;;7.87;100.00
74103;BME280;62853;46.166;3.640;2024-02-26T05:55:14;99764.31;;;7.80;100.00
74103;BME280;62853;46.166;3.640;2024-02-26T05:57:40;99769.66;;;7.78;100.00
74103;BME280;62853;46.166;3.640;2024-02-26T06:00:06;99769.47;;;7.81;100.00
74103;BME280;62853;46.166;3.640;2024-02-26T06:02:32;99775.28;;;7.87;100.00
74103;BME280;62853;46.166;3.640;2024-02-26T06:04:58;99770.78;;;7.89;100.00
74103;BME280;62853;46.166;3.640;2024-02-26T06:07:24;99768.06;;;7.90;100.00
74103;BME280;62853;46.166;3.640;2024-02-26T06:09:49;99764.59;;;7.90;100.00
74103;BME280;62853;46.166;3.640;2024-02-26T06:12:14;99772.28;;;7.93;100.00
74103;BME280;62853;46.166;3.640;2024-02-26T06:14:43;99775.75;;;7.93;100.00
74103;BME280;62853;46.166;3.640;2024-02-26T06:17:08;99780.34;;;7.90;100.00
74103;BME280;62853;46.166;3.640;2024-02-26T06:19:34;99780.16;;;7.93;100.00
74103;BME280;62853;46.166;3.640;2024-02-26T06:21:59;99789.59;;;7.95;100.00
74103;BME280;62853;46.166;3.640;2024-02-26T06:24:24;99795.56;;;7.97;100.00
74103;BME280;62853;46.166;3.640;2024-02-26T06:26:50;99785.97;;;7.98;100.00
74103;BME280;62853;46.166;3.640;2024-02-26T06:29:15;99788.50;;;7.99;100.00
74103;BME280;62853;46.166;3.640;2024-02-26T06:31:41;99795.31;;;8.02;100.00
74103;BME280;62853;46.166;3.640;2024-02-26T07:16:13;99847.19;;;8.26;100.00
74103;BME280;62853;46.166;3.640;2024-02-26T07:18:41;99853.41;;;8.25;100.00
74103;BME280;62853;46.166;3.640;2024-02-26T07:21:08;99855.34;;;8.21;100.00
74103;BME280;62853;46.166;3.640;2024-02-26T07:23:34;99866.69;;;8.22;100.00
74103;BME280;62853;46.166;3.640;2024-02-26T07:26:00;99870.25;;;8.20;100.00
74103;BME280;62853;46.166;3.640;2024-02-26T07:28:25;99867.63;;;8.20;100.00
74103;BME280;62853;46.166;3.640;2024-02-26T07:30:50;99879.81;;;8.22;100.00
74103;BME280;62853;46.166;3.640;2024-02-26T07:33:16;99884.19;;;8.21;100.00
74103;BME280;62853;46.166;3.640;2024-02-26T07:35:41;99897.22;;;8.23;100.00
74103;BME280;62853;46.166;3.640;2024-02-26T07:38:07;99893.84;;;8.20;100.00
74103;BME280;62853;46.166;3.640;2024-02-26T07:40:32;99893.84;;;8.20;100.00
74103;BME280;62853;46.166;3.640;2024-02-26T07:42:58;99896.47;;;8.20;100.00
74103;BME280;62853;46.166;3.640;2024-02-26T07:45:23;99895.66;;;8.20;100.00
74103;BME280;62853;46.166;3.640;2024-02-26T07:47:48;99900.03;;;8.19;100.00
74103;BME280;62853;46.166;3.640;2024-02-26T07:50:14;99901.91;;;8.17;100.00
74103;BME280;62853;46.166;3.640;2024-02-26T07:52:40;99897.78;;;8.13;100.00
74103;BME280;62853;46.166;3.640;2024-02-26T07:55:05;99910.06;;;8.13;100.00
74103;BME280;62853;46.166;3.640;2024-02-26T07:57:32;99911.81;;;8.12;100.00
74103;BME280;62853;46.166;3.640;2024-02-26T08:00:02;99915.31;;;8.13;100.00
74103;BME280;62853;46.166;3.640;2024-02-26T08:02:28;99919.59;;;8.14;100.00
74103;BME280;62853;46.166;3.640;2024-02-26T08:04:53;99910.06;;;8.13;100.00
74103;BME280;62853;46.166;3.640;2024-02-26T08:07:18;99923.06;;;8.14;100.00
74103;BME280;62853;46.166;3.640;2024-02-26T08:09:45;99920.34;;;8.16;100.00
74103;BME280;62853;46.166;3.640;2024-02-26T08:12:11;99921.22;;;8.16;100.00
74103;BME280;62853;46.166;3.640;2024-02-26T08:14:36;99925.41;;;8.19;100.00
74103;BME280;62853;46.166;3.640;2024-02-26T08:17:02;99927.97;;;8.20;100.00
74103;BME280;62853;46.166;3.640;2024-02-26T08:19:27;99928.03;;;8.19;100.00
74103;BME280;62853;46.166;3.640;2024-02-26T08:21:52;99933.38;;;8.17;100.00
74103;BME280;62853;46.166;3.640;2024-02-26T08:24:18;99949.97;;;8.18;100.00
74103;BME280;62853;46.166;3.640;2024-02-26T08:26:43;99941.25;;;8.17;100.00
74103;BME280;62853;46.166;3.640;2024-02-26T08:29:08;99952.97;;;8.12;100.00
74103;BME280;62853;46.166;3.640;2024-02-26T08:31:34;99955.56;;;8.12;100.00
74103;BME280;62853;46.166;3.640;2024-02-26T08:34:03;99950.16;;;8.15;100.00
74103;BME280;62853;46.166;3.640;2024-02-26T08:36:28;99952.88;;;8.13;100.00
74103;BME280;62853;46.166;3.640;2024-02-26T08:38:53;99959.78;;;8.14;100.00
74103;BME280;62853;46.166;3.640;2024-02-26T08:41:19;99968.44;;;8.16;100.00
74103;BME280;62853;46.166;3.640;2024-02-26T08:43:44;99965.81;;;8.16;100.00
74103;BME280;62853;46.166;3.640;2024-02-26T08:46:09;99963.09;;;8.18;100.00
74103;BME280;62853;46.166;3.640;2024-02-26T08:48:39;99969.19;;;8.18;100.00
74103;BME280;62853;46.166;3.640;2024-02-26T08:51:06;99976.31;;;8.16;100.00
74103;BME280;62853;46.166;3.640;2024-02-26T08:53:32;99975.44;;;8.16;100.00
74103;BME280;62853;46.166;3.640;2024-02-26T08:55:57;99979.09;;;8.13;100.00
74103;BME280;62853;46.166;3.640;2024-02-26T08:58:22;99980.75;;;8.14;100.00
74103;BME280;62853;46.166;3.640;2024-02-26T09:00:48;99995.66;;;8.14;100.00
74103;BME280;62853;46.166;3.640;2024-02-26T09:03:13;99992.03;;;8.16;100.00
74103;BME280;62853;46.166;3.640;2024-02-26T09:05:38;99988.47;;;8.17;100.00
74103;BME280;62853;46.166;3.640;2024-02-26T09:08:04;99998.88;;;8.19;100.00
74103;BME280;62853;46.166;3.640;2024-02-26T09:10:30;99999.63;;;8.21;100.00
74103;BME280;62853;46.166;3.640;2024-02-26T09:12:55;100004.03;;;8.20;100.00
74103;BME280;62853;46.166;3.640;2024-02-26T09:15:21;99992.69;;;8.20;100.00
74103;BME280;62853;46.166;3.640;2024-02-26T09:17:46;100004.03;;;8.20;100.00
74103;BME280;62853;46.166;3.640;2024-02-26T09:20:15;100012.81;;;8.19;100.00
74103;BME280;62853;46.166;3.640;2024-02-26T09:22:41;100011.91;;;8.20;100.00
74103;BME280;62853;46.166;3.640;2024-02-26T09:25:07;100016.31;;;8.20;100.00
74103;BME280;62853;46.166;3.640;2024-02-26T09:27:33;100018.84;;;8.22;100.00
74103;BME280;62853;46.166;3.640;2024-02-26T09:29:58;100028.38;;;8.23;100.00
74103;BME280;62853;46.166;3.640;2024-02-26T09:32:24;100027.47;;;8.24;100.00
74103;BME280;62853;46.166;3.640;2024-02-26T09:34:50;100029.25;;;8.23;100.00
74103;BME280;62853;46.166;3.640;2024-02-26T09:37:15;100029.34;;;8.22;100.00
74103;BME280;62853;46.166;3.640;2024-02-26T09:39:41;100033.72;;;8.21;100.00
74103;BME280;62853;46.166;3.640;2024-02-26T09:42:06;100034.59;;;8.22;100.00
74103;BME280;62853;46.166;3.640;2024-02-26T09:44:36;100043.28;;;8.22;100.00
74103;BME280;62853;46.166;3.640;2024-02-26T09:47:05;100050.31;;;8.22;100.00
74103;BME280;62853;46.166;3.640;2024-02-26T09:49:33;100049.44;;;8.21;100.00
74103;BME280;62853;46.166;3.640;2024-02-26T09:52:01;100049.44;;;8.21;100.00
74103;BME280;62853;46.166;3.640;2024-02-26T09:54:27;100060.81;;;8.22;100.00
74103;BME280;62853;46.166;3.640;2024-02-26T09:56:59;100062.19;;;8.13;100.00
74103;BME280;62853;46.166;3.640;2024-02-26T09:59:25;100062.84;;;8.16;100.00
74103;BME280;62853;46.166;3.640;2024-02-26T10:01:51;100072.31;;;8.19;100.00
74103;BME280;62853;46.166;3.640;2024-02-26T10:04:18;100067.91;;;8.19;100.00
74103;BME280;62853;46.166;3.640;2024-02-26T10:06:44;100065.28;;;8.19;100.00
74103;BME280;62853;46.166;3.640;2024-02-26T10:09:11;100078.41;;;8.19;100.00
74103;BME280;62853;46.166;3.640;2024-02-26T10:11:38;100089.66;;;8.22;100.00
74103;BME280;62853;46.166;3.640;2024-02-26T10:14:05;100084.34;;;8.23;100.00
74103;BME280;62853;46.166;3.640;2024-02-26T10:16:31;100092.22;;;8.23;100.00
74103;BME280;62853;46.166;3.640;2024-02-26T10:18:57;100095.59;;;8.25;100.00
74103;BME280;62853;46.166;3.640;2024-02-26T10:21:23;100105.13;;;8.26;100.00
74103;BME280;62853;46.166;3.640;2024-02-26T10:23:49;100110.38;;;8.26;100.00
74103;BME280;62853;46.166;3.640;2024-02-26T10:26:19;100111.16;;;8.28;100.00
74103;BME280;62853;46.166;3.640;2024-02-26T10:28:45;100118.94;;;8.30;100.00
74103;BME280;62853;46.166;3.640;2024-02-26T10:31:11;100116.41;;;8.28;100.00
74103;BME280;62853;46.166;3.640;2024-02-26T10:33:38;100113.78;;;8.28;100.00
74103;BME280;62853;46.166;3.640;2024-02-26T10:36:04;100119.78;;;8.30;100.00
74103;BME280;62853;46.166;3.640;2024-02-26T10:38:32;100125.84;;;8.31;100.00
74103;BME280;62853;46.166;3.640;2024-02-26T10:40:57;100126.81;;;8.30;100.00
74103;BME280;62853;46.166;3.640;2024-02-26T10:43:26;100138.97;;;8.31;100.00
74103;BME280;62853;46.166;3.640;2024-02-26T10:45:52;100139.94;;;8.30;100.00
74103;BME280;62853;46.166;3.640;2024-02-26T10:48:17;100139.06;;;8.29;100.00
74103;BME280;62853;46.166;3.640;2024-02-26T10:50:43;100142.56;;;8.30;100.00
74103;BME280;62853;46.166;3.640;2024-02-26T10:53:21;100155.66;;;8.30;100.00
74103;BME280;62853;46.166;3.640;2024-02-26T10:56:05;100162.59;;;8.31;100.00
74103;BME280;62853;46.166;3.640;2024-02-26T10:58:31;100175.72;;;8.31;100.00
74103;BME280;62853;46.166;3.640;2024-02-26T11:00:57;100160.81;;;8.31;100.00
74103;BME280;62853;46.166;3.640;2024-02-26T11:03:24;100160.72;;;8.33;100.00
74103;BME280;62853;46.166;3.640;2024-02-26T11:05:50;100178.16;;;8.34;100.00
74103;BME280;62853;46.166;3.640;2024-02-26T11:08:18;100173.75;;;8.34;100.00
74103;BME280;62853;46.166;3.640;2024-02-26T11:10:47;100178.09;;;8.35;100.00
74103;BME280;62853;46.166;3.640;2024-02-26T11:13:14;100192.03;;;8.36;100.00
74103;BME280;62853;46.166;3.640;2024-02-26T11:15:40;100184.09;;;8.37;100.00
74103;BME280;62853;46.166;3.640;2024-02-26T11:18:07;100188.50;;;8.37;100.00
74103;BME280;62853;46.166;3.640;2024-02-26T11:20:34;100188.91;;;8.29;100.00
74103;BME280;62853;46.166;3.640;2024-02-26T11:23:03;100194.25;;;8.28;100.00
74103;BME280;62853;46.166;3.640;2024-02-26T11:25:29;100193.66;;;8.23;100.00
74103;BME280;62853;46.166;3.640;2024-02-26T11:28:02;100198.13;;;8.20;100.00
74103;BME280;62853;46.166;3.640;2024-02-26T11:30:31;100192.16;;;8.18;100.00
74103;BME280;62853;46.166;3.640;2024-02-26T11:32:57;100195.75;;;8.16;100.00
74103;BME280;62853;46.166;3.640;2024-02-26T11:35:23;100195.00;;;8.14;100.00
74103;BME280;62853;46.166;3.640;2024-02-26T11:37:56;100204.66;;;8.13;100.00
74103;BME280;62853;46.166;3.640;2024-02-26T11:40:23;100204.66;;;8.13;100.00
74103;BME280;62853;46.166;3.640;2024-02-26T11:42:49;100208.22;;;8.12;100.00
74103;BME280;62853;46.166;3.640;2024-02-26T11:48:14;100205.81;;;8.08;100.00
74103;BME280;62853;46.166;3.640;2024-02-26T11:50:40;100198.06;;;8.06;100.00
74103;BME280;62853;46.166;3.640;2024-02-26T11:53:23;100209.47;;;8.05;100.00
74103;BME280;62853;46.166;3.640;2024-02-26T11:58:47;100218.34;;;8.02;100.00
74103;BME280;62853;46.166;3.640;2024-02-26T12:04:05;100222.06;;;7.98;100.00
74103;BME280;62853;46.166;3.640;2024-02-26T12:06:39;100223.06;;;7.96;100.00
74103;BME280;62853;46.166;3.640;2024-02-26T12:09:07;100222.25;;;7.95;100.00
74103;BME280;62853;46.166;3.640;2024-02-26T12:11:32;100222.16;;;7.97;100.00
74103;BME280;62853;46.166;3.640;2024-02-26T12:13:58;100225.47;;;8.00;100.00
74103;BME280;62853;46.166;3.640;2024-02-26T12:16:39;100232.41;;;8.01;100.00
74103;BME280;62853;46.166;3.640;2024-02-26T12:19:06;100234.19;;;8.01;100.00
74103;BME280;62853;46.166;3.640;2024-02-26T12:21:37;100234.94;;;8.03;100.00
74103;BME280;62853;46.166;3.640;2024-02-26T12:24:13;100242.81;;;8.03;100.00
74103;BME280;62853;46.166;3.640;2024-02-26T12:26:40;100246.44;;;8.00;100.00
74103;BME280;62853;46.166;3.640;2024-02-26T12:29:06;100242.91;;;8.01;100.00
74103;BME280;62853;46.166;3.640;2024-02-26T12:31:34;100249.81;;;8.02;100.00
74103;BME280;62853;46.166;3.640;2024-02-26T12:34:03;100248.97;;;8.02;100.00
74103;BME280;62853;46.166;3.640;2024-02-26T12:36:28;100248.97;;;8.02;100.00
74103;BME280;62853;46.166;3.640;2024-02-26T12:38:54;100253.31;;;8.03;100.00
74103;BME280;62853;46.166;3.640;2024-02-26T12:41:20;100262.00;;;8.04;100.00
74103;BME280;62853;46.166;3.640;2024-02-26T12:43:46;100274.13;;;8.06;100.00
74103;BME280;62853;46.166;3.640;2024-02-26T12:46:11;100264.41;;;8.08;100.00
74103;BME280;62853;46.166;3.640;2024-02-26T12:48:38;100271.41;;;8.08;100.00
74103;BME280;62853;46.166;3.640;2024-02-26T12:51:05;100278.34;;;8.09;100.00
74103;BME280;62853;46.166;3.640;2024-02-26T12:53:31;100279.19;;;8.09;100.00
74103;BME280;62853;46.166;3.640;2024-02-26T12:55:57;100287.94;;;8.10;100.00
74103;BME280;62853;46.166;3.640;2024-02-26T12:58:23;100276.47;;;8.11;100.00
74103;BME280;62853;46.166;3.640;2024-02-26T13:00:54;100290.38;;;8.13;100.00
74103;BME280;62853;46.166;3.640;2024-02-26T13:03:20;100300.97;;;8.11;100.00
74103;BME280;62853;46.166;3.640;2024-02-26T13:05:46;100294.75;;;8.12;100.00
74103;BME280;62853;46.166;3.640;2024-02-26T13:08:19;100308.81;;;8.11;100.00
74103;BME280;62853;46.166;3.640;2024-02-26T13:10:45;100302.63;;;8.12;100.00
74103;BME280;62853;46.166;3.640;2024-02-26T13:13:11;100295.72;;;8.11;100.00
74103;BME280;62853;46.166;3.640;2024-02-26T13:15:36;100314.00;;;8.13;100.00
74103;BME280;62853;46.166;3.640;2024-02-26T13:18:15;100322.69;;;8.13;100.00
74103;BME280;62853;46.166;3.640;2024-02-26T13:20:41;100317.47;;;8.13;100.00
74103;BME280;62853;46.166;3.640;2024-02-26T13:23:07;100319.13;;;8.14;100.00
74103;BME280;62853;46.166;3.640;2024-02-26T13:25:34;100337.50;;;8.14;100.00
74103;BME280;62853;46.166;3.640;2024-02-26T13:28:24;100346.31;;;8.13;100.00
74103;BME280;62853;46.166;3.640;2024-02-26T13:30:53;100341.91;;;8.14;100.00
74103;BME280;62853;46.166;3.640;2024-02-26T13:33:22;100342.75;;;8.14;100.00
74103;BME280;62853;46.166;3.640;2024-02-26T13:35:48;100359.44;;;8.13;100.00
74103;BME280;62853;46.166;3.640;2024-02-26T13:38:13;100357.63;;;8.14;100.00
74103;BME280;62853;46.166;3.640;2024-02-26T13:40:39;100367.28;;;8.13;100.00
74103;BME280;62853;46.166;3.640;2024-02-26T13:43:05;100361.28;;;8.11;100.00